createdAt,value
2022-11-21T00:00:14.973Z,22.13
2022-11-21T00:02:47.708Z,21.90
2022-11-21T00:05:19.417Z,21.08
2022-11-21T00:07:51.025Z,22.65
2022-11-21T00:10:23.695Z,22.80
2022-11-21T00:12:56.531Z,21.08
2022-11-21T00:15:30.975Z,22.58
2022-11-21T00:18:04.027Z,21.25
2022-11-21T00:20:37.305Z,20.02
2022-11-21T00:23:09.735Z,22.00
2022-11-21T00:25:41.359Z,19.38
2022-11-21T00:28:15.056Z,20.88
2022-11-21T00:30:46.693Z,21.33
2022-11-21T00:33:18.301Z,19.15
2022-11-21T00:35:50.020Z,18.40
2022-11-21T00:38:25.960Z,20.95
2022-11-21T00:40:57.663Z,19.20
2022-11-21T00:43:29.327Z,17.70
2022-11-21T00:46:03.053Z,16.50
2022-11-21T00:48:44.288Z,19.40
2022-11-21T00:51:16.140Z,18.52
2022-11-21T00:53:48.513Z,17.80
2022-11-21T00:56:24.660Z,16.15
2022-11-21T00:58:59.566Z,14.43
2022-11-21T01:04:03.019Z,16.63
2022-11-21T01:06:37.704Z,16.17
2022-11-21T01:09:10.429Z,15.52
2022-11-21T01:11:42.023Z,13.35
2022-11-21T01:14:16.208Z,13.82
2022-11-21T01:16:48.125Z,11.75
2022-11-21T01:19:23.161Z,13.23
2022-11-21T01:21:56.045Z,13.35
2022-11-21T01:24:30.210Z,12.80
2022-11-21T01:27:01.924Z,11.63
2022-11-21T01:29:33.706Z,11.15
2022-11-21T01:32:05.490Z,12.93
2022-11-21T01:34:37.340Z,13.52
2022-11-21T01:37:09.015Z,12.07
2022-11-21T01:39:40.848Z,13.75
2022-11-21T01:42:13.089Z,11.88
2022-11-21T01:44:54.591Z,12.23
2022-11-21T01:47:26.320Z,13.98
2022-11-21T01:49:58.230Z,12.63
2022-11-21T01:52:35.026Z,11.57
2022-11-21T01:57:48.637Z,13.05
2022-11-21T02:00:27.368Z,14.52
2022-11-21T02:03:03.637Z,11.63
2022-11-21T02:05:37.611Z,12.30
2022-11-21T02:08:21.847Z,13.70
2022-11-21T02:11:12.198Z,12.47
2022-11-21T02:13:45.967Z,13.35
2022-11-21T02:16:20.414Z,12.85
2022-11-21T02:18:54.317Z,12.68
2022-11-21T02:22:06.183Z,15.20
2022-11-21T02:24:46.950Z,14.13
2022-11-21T02:27:18.876Z,11.32
2022-11-21T02:29:50.467Z,12.38
2022-11-21T02:32:34.845Z,13.50
2022-11-21T02:35:08.106Z,13.77
2022-11-21T02:37:42.764Z,13.47
2022-11-21T02:40:22.706Z,13.13
2022-11-21T02:43:09.859Z,13.20
2022-11-21T02:45:43.959Z,13.18
2022-11-21T02:48:15.740Z,13.18
2022-11-21T02:50:48.232Z,13.18
2022-11-21T02:53:22.670Z,12.90
2022-11-21T02:55:54.413Z,9.68
2022-11-21T02:58:26.141Z,10.98
2022-11-21T03:00:57.826Z,9.50
2022-11-21T03:03:29.806Z,9.82
2022-11-21T03:06:01.400Z,9.77
2022-11-21T03:08:33.109Z,10.60
2022-11-21T03:11:05.152Z,8.85
2022-11-21T03:13:36.806Z,8.40
2022-11-21T03:16:08.399Z,8.82
2022-11-21T03:18:40.033Z,9.00
2022-11-21T03:21:11.697Z,7.38
2022-11-21T03:23:43.346Z,11.43
2022-11-21T03:26:14.880Z,6.28
2022-11-21T03:28:46.568Z,8.35
2022-11-21T03:31:18.225Z,7.82
2022-11-21T03:33:49.924Z,8.52
2022-11-21T03:36:21.597Z,8.60
2022-11-21T03:38:56.607Z,6.65
2022-11-21T03:41:31.117Z,9.43
2022-11-21T03:44:08.844Z,9.50
2022-11-21T03:46:43.174Z,6.50
2022-11-21T03:49:16.851Z,6.30
2022-11-21T03:51:48.588Z,6.70
2022-11-21T03:54:20.226Z,6.75
2022-11-21T03:56:51.855Z,8.10
2022-11-21T03:59:23.473Z,7.20
2022-11-21T04:01:55.077Z,6.10
2022-11-21T04:04:27.022Z,6.82
2022-11-21T04:06:58.780Z,5.82
2022-11-21T04:09:30.431Z,7.03
2022-11-21T04:12:07.319Z,8.20
2022-11-21T04:14:39.490Z,8.68
2022-11-21T04:17:11.140Z,5.35
2022-11-21T04:19:44.743Z,5.47
2022-11-21T04:22:16.401Z,5.88
2022-11-21T04:24:48.009Z,6.68
2022-11-21T04:27:19.572Z,5.43
2022-11-21T04:29:51.256Z,7.35
2022-11-21T04:32:22.820Z,5.00
2022-11-21T04:34:54.776Z,5.65
2022-11-21T04:37:26.319Z,6.32
2022-11-21T04:39:58.001Z,7.65
2022-11-21T04:42:29.840Z,5.85
2022-11-21T04:45:01.467Z,5.18
2022-11-21T04:47:35.940Z,8.65
2022-11-21T04:50:08.586Z,6.55
2022-11-21T04:52:40.444Z,7.80
2022-11-21T04:55:12.083Z,9.40
2022-11-21T04:57:43.706Z,5.35
2022-11-21T05:00:24.037Z,5.85
2022-11-21T05:03:02.484Z,4.68
2022-11-21T05:05:34.189Z,4.68
2022-11-21T05:08:05.867Z,5.68
2022-11-21T05:10:57.496Z,6.65
2022-11-21T05:13:29.044Z,4.13
2022-11-21T05:16:00.701Z,5.20
2022-11-21T05:18:32.292Z,5.20
2022-11-21T05:21:04.071Z,6.22
2022-11-21T05:23:35.696Z,4.53
2022-11-21T05:26:07.346Z,4.53
2022-11-21T05:28:38.989Z,5.40
2022-11-21T05:31:10.612Z,3.78
2022-11-21T05:33:42.219Z,4.82
2022-11-21T05:36:13.918Z,4.15
2022-11-21T05:38:45.544Z,4.82
2022-11-21T05:41:17.227Z,4.97
2022-11-21T05:43:50.164Z,2.92
2022-11-21T05:46:24.526Z,5.65
2022-11-21T05:48:56.296Z,6.07
2022-11-21T05:51:28.072Z,4.40
2022-11-21T05:53:59.916Z,4.75
2022-11-21T05:56:31.753Z,3.85
2022-11-21T05:59:03.365Z,5.47
2022-11-21T06:01:53.550Z,5.50
2022-11-21T06:04:26.602Z,4.80
2022-11-21T06:06:59.947Z,3.65
2022-11-21T06:09:31.700Z,3.15
2022-11-21T06:12:03.470Z,3.65
2022-11-21T06:14:35.063Z,9.55
2022-11-21T06:17:06.654Z,3.53
2022-11-21T06:19:38.268Z,5.47
2022-11-21T06:22:09.907Z,6.80
2022-11-21T06:24:41.605Z,5.68
2022-11-21T06:27:13.217Z,5.97
2022-11-21T06:29:44.845Z,3.72
2022-11-21T06:32:16.489Z,5.18
2022-11-21T06:34:48.189Z,4.97
2022-11-21T06:37:20.020Z,4.03
2022-11-21T06:39:53.720Z,6.45
2022-11-21T06:42:25.364Z,4.45
2022-11-21T06:44:56.959Z,4.13
2022-11-21T06:47:28.740Z,5.95
2022-11-21T06:50:00.820Z,3.85
2022-11-21T06:52:33.880Z,4.45
2022-11-21T06:55:05.982Z,3.33
2022-11-21T06:57:37.667Z,6.05
2022-11-21T07:00:09.876Z,7.35
2022-11-21T07:02:41.543Z,6.70
2022-11-21T07:05:13.124Z,3.28
2022-11-21T07:07:44.950Z,4.32
2022-11-21T07:10:16.653Z,6.57
2022-11-21T07:13:07.039Z,6.65
2022-11-21T07:15:38.685Z,4.18
2022-11-21T07:18:10.484Z,5.65
2022-11-21T07:20:42.112Z,4.32
2022-11-21T07:23:13.964Z,5.80
2022-11-21T07:25:45.519Z,2.97
2022-11-21T07:28:17.437Z,5.32
2022-11-21T07:30:49.070Z,4.05
2022-11-21T07:33:24.130Z,4.15
2022-11-21T07:35:57.684Z,5.07
2022-11-21T07:38:29.428Z,3.47
2022-11-21T07:41:01.920Z,3.03
2022-11-21T07:43:33.626Z,2.53
2022-11-21T07:46:08.135Z,3.85
2022-11-21T07:48:39.735Z,2.78
2022-11-21T07:51:11.335Z,3.67
2022-11-21T07:53:43.044Z,2.35
2022-11-21T07:56:14.665Z,3.00
2022-11-21T07:58:46.358Z,2.30
2022-11-21T08:01:18.066Z,3.10
2022-11-21T08:03:49.777Z,3.75
2022-11-21T08:06:21.358Z,3.60
2022-11-21T08:08:56.329Z,3.85
2022-11-21T08:11:28.207Z,2.95
2022-11-21T08:14:00.030Z,3.53
2022-11-21T08:16:33.032Z,5.22
2022-11-21T08:19:07.730Z,2.70
2022-11-21T08:24:14.675Z,4.15
2022-11-21T08:26:46.867Z,3.97
2022-11-21T08:29:18.740Z,3.55
2022-11-21T08:31:50.378Z,3.55
2022-11-21T08:34:22.160Z,3.17
2022-11-21T08:36:53.700Z,2.63
2022-11-21T08:39:26.967Z,3.47
2022-11-21T08:42:04.865Z,4.00
2022-11-21T08:44:36.599Z,3.42
2022-11-21T08:47:08.168Z,2.92
2022-11-21T08:49:39.945Z,2.60
2022-11-21T08:52:11.741Z,4.43
2022-11-21T08:54:46.935Z,5.60
2022-11-21T08:57:18.538Z,2.78
2022-11-21T08:59:50.171Z,2.35
2022-11-21T09:02:21.793Z,2.95
2022-11-21T09:04:57.446Z,3.65
2022-11-21T09:07:29.141Z,4.43
2022-11-21T09:10:00.773Z,2.35
2022-11-21T09:12:32.435Z,1.77
2022-11-21T09:15:23.437Z,2.22
2022-11-21T09:18:04.114Z,3.78
2022-11-21T09:20:44.924Z,2.63
2022-11-21T09:23:16.820Z,3.47
2022-11-21T09:25:48.533Z,2.97
2022-11-21T09:28:20.173Z,4.20
2022-11-21T09:30:51.983Z,2.13
2022-11-21T09:33:23.600Z,2.78
2022-11-21T09:35:55.280Z,3.47
2022-11-21T09:38:27.971Z,2.75
2022-11-21T09:41:46.751Z,3.05
2022-11-21T09:44:48.000Z,2.10
2022-11-21T09:47:24.638Z,1.90
2022-11-21T09:50:04.313Z,2.67
2022-11-21T09:52:42.111Z,2.13
2022-11-21T09:55:27.820Z,1.80
2022-11-21T09:58:02.788Z,2.50
2022-11-21T10:00:34.601Z,2.88
2022-11-21T10:03:06.326Z,4.85
2022-11-21T10:05:48.516Z,1.83
2022-11-21T10:08:35.591Z,2.17
2022-11-21T10:11:57.977Z,2.28
2022-11-21T10:14:48.297Z,2.55
2022-11-21T10:17:54.281Z,1.80
2022-11-21T10:20:54.145Z,3.13
2022-11-21T10:23:31.622Z,1.55
2022-11-21T10:26:23.536Z,2.65
2022-11-21T10:29:10.373Z,2.80
2022-11-21T10:31:43.907Z,1.92
2022-11-21T10:34:20.804Z,1.85
2022-11-21T10:37:00.939Z,2.97
2022-11-21T10:39:43.975Z,1.58
2022-11-21T10:42:46.203Z,1.90
2022-11-21T10:45:19.020Z,1.80
2022-11-21T10:47:52.204Z,3.38
2022-11-21T10:50:36.804Z,2.40
2022-11-21T10:53:28.339Z,1.75
2022-11-21T10:56:04.743Z,3.83
2022-11-21T10:58:50.553Z,4.93
2022-11-21T11:01:34.264Z,1.73
2022-11-21T11:04:29.029Z,3.33
2022-11-21T11:07:22.020Z,2.90
2022-11-21T11:10:15.530Z,2.67
2022-11-21T11:13:30.698Z,3.70
2022-11-21T11:16:09.601Z,2.90
2022-11-21T11:18:48.128Z,2.72
2022-11-21T11:21:25.028Z,4.13
2022-11-21T11:24:24.465Z,5.75
2022-11-21T11:27:01.858Z,8.95
2022-11-21T11:29:35.610Z,5.60
2022-11-21T11:32:21.608Z,10.60
2022-11-21T11:35:33.945Z,13.27
2022-11-21T11:38:09.292Z,11.93
2022-11-21T11:40:45.776Z,15.35
2022-11-21T11:44:08.078Z,15.10
2022-11-21T11:47:15.722Z,18.30
2022-11-21T11:50:13.529Z,13.55
2022-11-21T11:52:45.117Z,16.23
2022-11-21T11:55:58.087Z,12.57
2022-11-21T11:58:52.753Z,14.10
2022-11-21T12:01:40.790Z,13.17
2022-11-21T12:04:16.965Z,14.95
2022-11-21T12:09:52.401Z,17.17
2022-11-21T12:12:35.891Z,15.05
2022-11-21T12:15:48.866Z,16.23
2022-11-21T12:18:31.852Z,14.98
2022-11-21T12:21:09.122Z,14.02
2022-11-21T12:27:05.615Z,14.98
2022-11-21T12:29:48.801Z,18.15
2022-11-21T12:32:35.614Z,15.32
2022-11-21T12:35:29.585Z,13.88
2022-11-21T12:38:19.926Z,16.38
2022-11-21T12:41:34.768Z,14.52
2022-11-21T12:44:18.424Z,13.57
2022-11-21T12:46:58.951Z,15.15
2022-11-21T12:49:56.382Z,12.50
2022-11-21T12:53:06.865Z,12.23
2022-11-21T12:55:40.893Z,10.70
2022-11-21T12:58:20.522Z,11.57
2022-11-21T13:01:21.522Z,12.32
2022-11-21T13:04:09.182Z,11.50
2022-11-21T13:06:43.634Z,9.38
2022-11-21T13:09:19.482Z,12.48
2022-11-21T13:12:04.563Z,9.45
2022-11-21T13:14:54.334Z,9.73
2022-11-21T13:17:25.840Z,9.70
2022-11-21T13:20:04.979Z,13.27
2022-11-21T13:22:36.473Z,8.63
2022-11-21T13:25:14.785Z,8.20
2022-11-21T13:27:49.537Z,8.93
2022-11-21T13:30:24.397Z,10.93
2022-11-21T13:35:50.616Z,11.13
2022-11-21T13:38:22.413Z,11.27
2022-11-21T13:41:12.619Z,11.27
2022-11-21T13:43:44.866Z,10.13
2022-11-21T13:46:54.899Z,10.13
2022-11-21T13:49:44.598Z,15.55
2022-11-21T13:52:19.285Z,11.73
2022-11-21T13:55:28.603Z,13.00
2022-11-21T13:58:31.609Z,15.18
2022-11-21T14:01:17.722Z,16.13
2022-11-21T14:04:03.004Z,21.02
2022-11-21T14:09:13.572Z,26.45
2022-11-21T14:11:49.865Z,28.35
2022-11-21T14:14:38.799Z,26.20
2022-11-21T14:17:13.455Z,24.92
2022-11-21T14:19:45.587Z,25.23
2022-11-21T14:22:45.514Z,25.23
2022-11-21T14:25:20.385Z,24.02
2022-11-21T14:27:54.559Z,24.38
2022-11-21T14:30:40.896Z,27.58
2022-11-21T14:33:34.089Z,30.95
2022-11-21T14:36:16.198Z,30.23
2022-11-21T14:39:35.480Z,28.90
2022-11-21T14:42:05.020Z,27.88
2022-11-21T14:44:37.086Z,28.67
2022-11-21T14:47:21.558Z,26.63
2022-11-21T14:50:00.900Z,32.53
2022-11-21T14:52:35.568Z,27.80
2022-11-21T14:55:30.355Z,30.52
2022-11-21T14:58:06.061Z,36.78
2022-11-21T15:03:29.237Z,28.30
2022-11-21T15:06:06.309Z,30.67
2022-11-21T15:11:34.846Z,29.15
2022-11-21T15:14:28.236Z,30.73
2022-11-21T15:17:04.150Z,29.90
2022-11-21T15:19:35.780Z,28.75
2022-11-21T15:22:21.123Z,32.22
2022-11-21T15:25:06.610Z,29.60
2022-11-21T15:27:38.232Z,31.77
2022-11-21T15:30:09.902Z,30.80
2022-11-21T15:33:14.867Z,32.90
2022-11-21T15:35:56.712Z,36.63
2022-11-21T15:38:45.003Z,34.03
2022-11-21T15:41:16.571Z,34.25
2022-11-21T15:43:50.615Z,31.90
2022-11-21T15:46:37.935Z,34.35
2022-11-21T15:49:31.847Z,37.50
2022-11-21T15:52:11.904Z,34.33
2022-11-21T15:54:43.603Z,38.50
2022-11-21T15:57:17.069Z,34.67
2022-11-21T15:59:49.676Z,31.05
2022-11-21T16:02:21.402Z,33.10
2022-11-21T16:04:53.485Z,33.10
2022-11-21T16:07:25.174Z,34.30
2022-11-21T16:09:56.839Z,36.63
2022-11-21T16:12:28.491Z,32.05
2022-11-21T16:15:00.067Z,35.70
2022-11-21T16:17:31.700Z,33.15
2022-11-21T16:20:03.498Z,36.83
2022-11-21T16:22:35.085Z,35.00
2022-11-21T16:25:07.999Z,37.08
2022-11-21T16:27:39.612Z,35.08
2022-11-21T16:30:12.304Z,35.17
2022-11-21T16:32:43.891Z,35.45
2022-11-21T16:35:15.748Z,31.20
2022-11-21T16:37:47.408Z,31.85
2022-11-21T16:40:21.645Z,32.85
2022-11-21T16:43:08.003Z,36.40
2022-11-21T16:45:39.957Z,32.58
2022-11-21T16:48:11.655Z,34.53
2022-11-21T16:50:43.306Z,36.40
2022-11-21T16:53:16.124Z,32.50
2022-11-21T16:55:47.713Z,36.72
2022-11-21T16:58:19.311Z,32.85
2022-11-21T17:00:50.955Z,35.65
2022-11-21T17:03:22.617Z,34.33
2022-11-21T17:06:01.554Z,28.20
2022-11-21T17:08:33.842Z,29.23
2022-11-21T17:11:19.841Z,24.60
2022-11-21T17:13:51.536Z,24.80
2022-11-21T17:16:23.782Z,27.10
2022-11-21T17:18:57.088Z,25.90
2022-11-21T17:21:30.334Z,22.08
2022-11-21T17:24:02.160Z,24.08
2022-11-21T17:26:36.931Z,23.08
2022-11-21T17:29:09.563Z,22.85
2022-11-21T17:31:42.251Z,23.58
2022-11-21T17:34:14.404Z,21.05
2022-11-21T17:36:46.105Z,21.25
2022-11-21T17:39:18.153Z,19.10
2022-11-21T17:41:53.756Z,22.17
2022-11-21T17:44:25.576Z,21.65
2022-11-21T17:46:59.304Z,23.00
2022-11-21T17:49:37.034Z,25.38
2022-11-21T17:52:08.751Z,23.67
2022-11-21T17:54:40.339Z,23.65
2022-11-21T17:57:12.079Z,22.17
2022-11-21T17:59:45.197Z,21.70
2022-11-21T18:02:18.188Z,23.33
2022-11-21T18:04:50.469Z,22.45
2022-11-21T18:07:22.177Z,22.70
2022-11-21T18:09:53.919Z,24.83
2022-11-21T18:12:25.532Z,24.50
2022-11-21T18:14:57.173Z,28.00
2022-11-21T18:17:28.790Z,23.58
2022-11-21T18:20:00.416Z,25.52
2022-11-21T18:22:32.045Z,23.75
2022-11-21T18:25:04.125Z,24.63
2022-11-21T18:27:35.795Z,27.65
2022-11-21T18:30:07.955Z,29.42
2022-11-21T18:32:39.547Z,25.98
2022-11-21T18:35:11.210Z,26.83
2022-11-21T18:37:42.837Z,22.83
2022-11-21T18:40:14.485Z,30.10
2022-11-21T18:42:47.064Z,23.92
2022-11-21T18:45:19.018Z,32.08
2022-11-21T18:47:50.623Z,29.23
2022-11-21T18:50:22.285Z,25.17
2022-11-21T18:52:53.913Z,27.13
2022-11-21T18:55:27.321Z,28.95
2022-11-21T18:57:58.940Z,33.58
2022-11-21T19:00:30.561Z,23.15
2022-11-21T19:03:02.147Z,28.70
2022-11-21T19:05:35.275Z,23.38
2022-11-21T19:08:06.867Z,29.08
2022-11-21T19:10:43.443Z,29.70
2022-11-21T19:13:15.874Z,31.58
2022-11-21T19:15:47.643Z,32.05
2022-11-21T19:18:19.305Z,28.58
2022-11-21T19:20:50.939Z,26.55
2022-11-21T19:23:22.548Z,31.58
2022-11-21T19:26:06.196Z,33.90
2022-11-21T19:28:38.082Z,32.53
2022-11-21T19:31:12.602Z,33.67
2022-11-21T19:33:44.303Z,35.65
2022-11-21T19:36:18.511Z,33.47
2022-11-21T19:38:51.832Z,38.05
2022-11-21T19:41:27.555Z,33.03
2022-11-21T19:44:00.112Z,38.30
2022-11-21T19:46:34.229Z,38.55
2022-11-21T19:49:07.159Z,36.95
2022-11-21T19:51:40.957Z,38.13
2022-11-21T19:54:13.601Z,36.58
2022-11-21T19:56:45.303Z,34.50
2022-11-21T19:59:16.955Z,35.72
2022-11-21T20:01:52.541Z,35.85
2022-11-21T20:04:24.868Z,35.47
2022-11-21T20:06:57.494Z,36.45
2022-11-21T20:09:34.481Z,36.75
2022-11-21T20:12:06.618Z,40.75
2022-11-21T20:14:38.214Z,37.95
2022-11-21T20:17:09.869Z,47.80
2022-11-21T20:19:44.250Z,42.03
2022-11-21T20:22:19.368Z,39.38
2022-11-21T20:24:51.979Z,51.92
2022-11-21T20:27:23.805Z,40.42
2022-11-21T20:29:55.889Z,48.25
2022-11-21T20:32:28.441Z,37.55
2022-11-21T20:35:00.029Z,39.17
2022-11-21T20:37:31.642Z,40.83
2022-11-21T20:40:03.420Z,45.45
2022-11-21T20:42:37.344Z,43.67
2022-11-21T20:46:06.489Z,40.23
2022-11-21T20:48:08.557Z,43.75
2022-11-21T20:51:34.975Z,37.80
2022-11-21T20:53:51.640Z,39.42
2022-11-21T20:56:24.935Z,38.00
2022-11-21T20:58:58.547Z,37.42
2022-11-21T21:01:30.826Z,41.88
2022-11-21T21:04:02.738Z,42.55
2022-11-21T21:06:34.383Z,43.33
2022-11-21T21:09:06.301Z,44.63
2022-11-21T21:11:51.621Z,42.85
2022-11-21T21:14:24.477Z,38.22
2022-11-21T21:16:56.086Z,49.28
2022-11-21T21:19:28.099Z,40.25
2022-11-21T21:22:00.035Z,44.50
2022-11-21T21:24:31.656Z,43.08
2022-11-21T21:27:03.249Z,43.25
2022-11-21T21:29:34.952Z,43.42
2022-11-21T21:32:06.509Z,46.05
2022-11-21T21:34:38.517Z,44.88
2022-11-21T21:37:10.172Z,48.30
2022-11-21T21:39:44.900Z,45.47
2022-11-21T21:42:16.551Z,51.10
2022-11-21T21:44:50.267Z,42.97
2022-11-21T21:47:21.890Z,45.03
2022-11-21T21:49:53.497Z,43.85
2022-11-21T21:52:25.186Z,40.20
2022-11-21T21:54:57.325Z,53.75
2022-11-21T21:57:31.972Z,48.72
2022-11-21T22:00:04.111Z,62.40
2022-11-21T22:02:45.870Z,50.85
2022-11-21T22:05:17.500Z,48.58
2022-11-21T22:07:49.293Z,44.17
2022-11-21T22:10:20.974Z,47.80
2022-11-21T22:12:52.916Z,60.30
2022-11-21T22:15:24.693Z,77.60
2022-11-21T22:17:56.360Z,58.20
2022-11-21T22:20:28.301Z,76.18
2022-11-21T22:23:00.698Z,59.70
2022-11-21T22:25:32.424Z,96.20
2022-11-21T22:28:04.158Z,93.47
2022-11-21T22:30:35.963Z,74.03
2022-11-21T22:33:07.899Z,80.05
2022-11-21T22:35:39.529Z,68.68
2022-11-21T22:38:12.094Z,71.30
2022-11-21T22:40:44.814Z,63.17
2022-11-21T22:43:16.457Z,82.72
2022-11-21T22:45:48.218Z,81.43
2022-11-21T22:48:19.791Z,62.90
2022-11-21T22:50:51.699Z,48.28
2022-11-21T22:53:23.821Z,75.40
2022-11-21T22:55:57.624Z,44.10
2022-11-21T22:58:31.208Z,60.38
2022-11-21T23:01:09.780Z,45.17
2022-11-21T23:03:42.348Z,120.50
2022-11-21T23:06:33.083Z,50.58
2022-11-21T23:09:04.773Z,55.88
2022-11-21T23:11:40.831Z,148.57
2022-11-21T23:14:13.669Z,67.22
2022-11-21T23:16:45.521Z,70.43
2022-11-21T23:19:17.153Z,43.50
2022-11-21T23:21:55.897Z,90.30
2022-11-21T23:24:27.568Z,76.25
2022-11-21T23:26:59.752Z,44.78
2022-11-21T23:29:31.694Z,46.20
2022-11-21T23:32:03.665Z,39.40
2022-11-21T23:34:35.392Z,41.63
2022-11-21T23:37:09.749Z,40.67
2022-11-21T23:39:41.324Z,54.53
2022-11-21T23:42:12.954Z,90.10
2022-11-21T23:44:44.731Z,48.10
2022-11-21T23:47:16.408Z,97.93
2022-11-21T23:49:50.237Z,85.28
2022-11-21T23:52:21.982Z,50.37
2022-11-21T23:54:53.616Z,46.38
2022-11-21T23:57:25.303Z,49.33
2022-11-21T23:59:56.928Z,45.50
